Time;durP1;ratioP1;P1;durP2;ratioP2;P2;SDS_P1;SDS_P2;PMS_P1;PMS_P2;Temp;Humidity;BMP_temperature;BMP_pressure;BME280_temperature;BME280_humidity;BME280_pressure;Samples;Min_cycle;Max_cycle;Signal;HPM_P1;HPM_P2
2021/01/27 00:00:53;;;;;;;18.35;9.40;;;;;;;;;;1779204;81;21152;-75
2021/01/27 00:03:19;;;;;;;17.77;9.70;;;;;;;;;;1779442;81;21176;-76
2021/01/27 00:05:47;;;;;;;17.45;9.18;;;;;;;;;;1779025;81;21279;-75
2021/01/27 00:08:13;;;;;;;18.62;10.20;;;;;;;;;;1779290;81;21163;-77
2021/01/27 00:10:39;;;;;;;21.12;10.23;;;;;;;;;;1779274;81;21188;-77
2021/01/27 00:13:06;;;;;;;22.22;10.38;;;;;;;;;;1779096;81;21157;-76
2021/01/27 00:15:34;;;;;;;23.65;11.25;;;;;;;;;;1779136;81;21164;-78
2021/01/27 00:18:00;;;;;;;19.25;9.73;;;;;;;;;;1779010;81;21313;-76
2021/01/27 00:20:26;;;;;;;22.52;10.65;;;;;;;;;;1779002;81;21588;-75
2021/01/27 00:22:53;;;;;;;19.57;10.00;;;;;;;;;;1778962;81;21345;-76
2021/01/27 00:25:21;;;;;;;24.05;10.93;;;;;;;;;;1779207;81;21148;-76
2021/01/27 00:27:47;;;;;;;23.45;10.50;;;;;;;;;;1779276;81;21148;-75
2021/01/27 00:30:14;;;;;;;21.00;9.85;;;;;;;;;;1787992;79;21167;-76
2021/01/27 00:32:40;;;;;;;23.73;10.32;;;;;;;;;;1816713;79;21281;-78
2021/01/27 00:35:07;;;;;;;17.90;9.88;;;;;;;;;;1816807;79;21156;-76
2021/01/27 00:37:33;;;;;;;20.57;9.73;;;;;;;;;;1816643;79;21322;-74
2021/01/27 00:40:00;;;;;;;19.70;9.65;;;;;;;;;;1816725;79;21145;-75
2021/01/27 00:42:26;;;;;;;21.40;10.65;;;;;;;;;;1816526;79;21289;-77
2021/01/27 00:44:52;;;;;;;19.92;10.05;;;;;;;;;;1822965;79;21131;-77
2021/01/27 00:47:18;;;;;;;21.42;9.55;;;;;;;;;;1822622;79;21587;-74
2021/01/27 00:49:44;;;;;;;18.50;9.73;;;;;;;;;;1822714;79;21190;-77
2021/01/27 00:52:11;;;;;;;22.48;10.20;;;;;;;;;;1822712;79;21661;-76
2021/01/27 00:54:37;;;;;;;19.42;9.65;;;;;;;;;;1822706;79;21194;-74
2021/01/27 00:57:04;;;;;;;18.00;9.75;;;;;;;;;;1822571;79;21147;-76
2021/01/27 00:59:30;;;;;;;23.42;9.23;;;;;;;;;;1805347;79;21124;-74
2021/01/27 01:01:57;;;;;;;21.27;9.08;;;;;;;;;;1791343;79;21148;-77
2021/01/27 01:04:23;;;;;;;18.17;8.45;;;;;;;;;;1787290;80;21152;-73
2021/01/27 01:06:49;;;;;;;19.55;9.25;;;;;;;;;;1787229;80;21136;-75
2021/01/27 01:09:15;;;;;;;18.37;8.78;;;;;;;;;;1787351;80;21631;-76
2021/01/27 01:11:41;;;;;;;17.40;8.45;;;;;;;;;;1787358;80;21144;-75
2021/01/27 01:14:08;;;;;;;14.95;7.37;;;;;;;;;;1787266;79;21136;-75
2021/01/27 01:16:34;;;;;;;18.70;8.53;;;;;;;;;;1787278;80;21188;-75
2021/01/27 01:19:00;;;;;;;15.70;8.20;;;;;;;;;;1787427;80;21145;-74
2021/01/27 01:21:26;;;;;;;18.32;7.40;;;;;;;;;;1787334;80;21251;-76
2021/01/27 01:23:52;;;;;;;14.75;7.30;;;;;;;;;;1787582;80;21144;-76
2021/01/27 01:26:19;;;;;;;17.85;8.20;;;;;;;;;;1787257;80;21579;-74
2021/01/27 01:28:45;;;;;;;17.67;7.72;;;;;;;;;;1787277;80;21140;-75
2021/01/27 01:31:11;;;;;;;15.53;7.90;;;;;;;;;;1796169;80;21579;-75
2021/01/27 01:33:37;;;;;;;13.78;7.60;;;;;;;;;;1800635;80;21152;-74
2021/01/27 01:36:04;;;;;;;16.30;7.83;;;;;;;;;;1800919;80;21685;-77
2021/01/27 01:38:30;;;;;;;17.70;8.18;;;;;;;;;;1800557;80;21133;-76
2021/01/27 01:40:57;;;;;;;16.75;8.38;;;;;;;;;;1800615;80;21408;-75
2021/01/27 01:43:27;;;;;;;17.95;8.13;;;;;;;;;;1798879;80;21651;-78
2021/01/27 01:45:54;;;;;;;17.42;8.10;;;;;;;;;;1795175;80;21608;-77
2021/01/27 01:48:39;;;;;;;17.70;8.13;;;;;;;;;;1795019;80;21160;-75
2021/01/27 01:51:10;;;;;;;17.57;8.45;;;;;;;;;;1795120;80;21141;-76
2021/01/27 01:53:36;;;;;;;17.60;7.85;;;;;;;;;;1777275;80;21156;-77
2021/01/27 01:56:04;;;;;;;20.15;8.20;;;;;;;;;;1795530;80;21141;-78
2021/01/27 01:58:30;;;;;;;14.70;8.03;;;;;;;;;;1795250;80;21568;-77
2021/01/27 02:00:57;;;;;;;15.43;7.87;;;;;;;;;;1795487;80;21156;-78
2021/01/27 02:03:23;;;;;;;16.20;7.90;;;;;;;;;;1795396;80;21141;-77
2021/01/27 02:05:50;;;;;;;18.55;8.40;;;;;;;;;;1795298;80;21129;-78
2021/01/27 02:08:16;;;;;;;20.15;9.50;;;;;;;;;;1795118;80;21568;-78
2021/01/27 02:10:42;;;;;;;16.70;8.28;;;;;;;;;;1794975;80;21274;-76
2021/01/27 02:13:29;;;;;;;14.53;8.53;;;;;;;;;;1795078;80;21612;-77
2021/01/27 02:16:02;;;;;;;15.78;7.83;;;;;;;;;;1795355;80;21172;-76
2021/01/27 02:18:42;;;;;;;16.57;8.18;;;;;;;;;;1795033;79;21173;-75
2021/01/27 02:21:13;;;;;;;20.62;7.60;;;;;;;;;;1795077;80;21696;-77
2021/01/27 02:23:44;;;;;;;17.60;8.55;;;;;;;;;;1794918;80;21188;-77
2021/01/27 02:26:28;;;;;;;17.35;8.25;;;;;;;;;;1795111;80;21581;-77
2021/01/27 02:29:05;;;;;;;18.87;7.50;;;;;;;;;;1795200;80;21267;-75
2021/01/27 02:31:36;;;;;;;15.68;7.40;;;;;;;;;;1811410;79;21298;-75
2021/01/27 02:34:04;;;;;;;15.53;7.45;;;;;;;;;;1816440;79;21128;-76
2021/01/27 02:36:33;;;;;;;14.95;7.53;;;;;;;;;;1816411;79;21155;-75
2021/01/27 02:39:01;;;;;;;12.85;6.95;;;;;;;;;;1816542;79;21187;-74
2021/01/27 02:41:32;;;;;;;14.43;7.62;;;;;;;;;;1816560;79;21170;-75
2021/01/27 02:44:00;;;;;;;18.37;8.13;;;;;;;;;;1816230;79;21607;-76
2021/01/27 02:46:34;;;;;;;13.38;7.05;;;;;;;;;;1816747;79;21143;-75
2021/01/27 02:49:00;;;;;;;;;;;;;;;;;;1819270;79;21310;-77
2021/01/27 02:51:28;;;;;;;15.45;7.42;;;;;;;;;;1816608;79;20287;-77
2021/01/27 02:53:56;;;;;;;12.45;7.03;;;;;;;;;;1816404;79;21138;-75
2021/01/27 02:56:24;;;;;;;14.40;7.37;;;;;;;;;;1814619;79;21164;-76
2021/01/27 02:58:52;;;;;;;15.35;7.33;;;;;;;;;;1816539;79;21179;-77
2021/01/27 03:01:20;;;;;;;14.60;6.65;;;;;;;;;;1805018;79;21159;-77
2021/01/27 03:03:48;;;;;;;14.50;7.17;;;;;;;;;;1816471;79;21140;-75
2021/01/27 03:06:15;;;;;;;17.42;7.75;;;;;;;;;;1816504;79;21128;-77
2021/01/27 03:08:49;;;;;;;15.60;8.03;;;;;;;;;;1816630;79;21167;-77
2021/01/27 03:11:17;;;;;;;17.15;7.85;;;;;;;;;;1815918;79;21144;-76
2021/01/27 03:13:44;;;;;;;15.85;7.83;;;;;;;;;;1816587;79;21170;-75
2021/01/27 03:16:12;;;;;;;18.23;8.35;;;;;;;;;;1816773;79;21294;-76
2021/01/27 03:18:39;;;;;;;22.52;9.60;;;;;;;;;;1815225;79;21305;-76
2021/01/27 03:21:10;;;;;;;21.33;9.35;;;;;;;;;;1816562;79;21108;-75
2021/01/27 03:23:38;;;;;;;19.17;9.50;;;;;;;;;;1814969;79;21278;-76
2021/01/27 03:26:06;;;;;;;16.65;8.78;;;;;;;;;;1816740;79;21174;-75
2021/01/27 03:28:34;;;;;;;17.52;8.80;;;;;;;;;;1816592;79;21757;-75
2021/01/27 03:31:00;;;;;;;22.98;9.85;;;;;;;;;;1803649;79;21713;-76
2021/01/27 03:33:31;;;;;;;20.97;9.50;;;;;;;;;;1793549;80;21171;-75
2021/01/27 03:35:59;;;;;;;20.48;9.28;;;;;;;;;;1793414;80;21147;-77
2021/01/27 03:38:27;;;;;;;20.75;9.85;;;;;;;;;;1792935;80;21583;-76
2021/01/27 03:40:55;;;;;;;20.80;9.20;;;;;;;;;;1793178;80;21737;-74
2021/01/27 03:43:26;;;;;;;24.60;9.00;;;;;;;;;;1792697;79;21564;-77
2021/01/27 03:45:56;;;;;;;21.12;9.78;;;;;;;;;;1784871;80;21299;-76
2021/01/27 03:48:30;;;;;;;20.50;9.38;;;;;;;;;;1785102;80;21105;-77
2021/01/27 03:50:57;;;;;;;18.45;7.47;;;;;;;;;;1785045;80;21172;-74
2021/01/27 03:53:25;;;;;;;16.37;8.53;;;;;;;;;;1784812;80;21341;-76
2021/01/27 03:55:53;;;;;;;19.73;8.73;;;;;;;;;;1785074;80;21155;-75
2021/01/27 03:58:26;;;;;;;20.05;8.88;;;;;;;;;;1784707;80;21225;-74
2021/01/27 04:00:54;;;;;;;20.05;7.70;;;;;;;;;;1791859;79;21544;-74
2021/01/27 04:03:21;;;;;;;19.35;8.03;;;;;;;;;;1805605;79;21274;-76
2021/01/27 04:05:47;;;;;;;18.52;8.10;;;;;;;;;;1800461;80;21588;-74
2021/01/27 04:08:14;;;;;;;15.10;7.80;;;;;;;;;;1800698;80;21183;-75
2021/01/27 04:10:40;;;;;;;14.93;7.72;;;;;;;;;;1800275;80;21137;-75
2021/01/27 04:13:06;;;;;;;18.37;7.80;;;;;;;;;;1800563;80;21128;-75
2021/01/27 04:15:33;;;;;;;18.67;7.62;;;;;;;;;;1800113;80;21129;-76
2021/01/27 04:17:59;;;;;;;13.45;7.92;;;;;;;;;;1800510;80;21585;-77
2021/01/27 04:20:26;;;;;;;15.13;7.33;;;;;;;;;;1800384;80;21136;-78
2021/01/27 04:22:53;;;;;;;14.63;7.20;;;;;;;;;;1800721;80;21140;-75
2021/01/27 04:25:19;;;;;;;17.23;7.35;;;;;;;;;;1800350;80;21163;-76
2021/01/27 04:27:45;;;;;;;15.03;7.37;;;;;;;;;;1800420;80;21192;-75
2021/01/27 04:30:13;;;;;;;14.60;6.58;;;;;;;;;;1802719;79;21144;-75
2021/01/27 04:32:39;;;;;;;16.07;7.25;;;;;;;;;;1810921;79;21187;-76
2021/01/27 04:35:06;;;;;;;16.73;6.37;;;;;;;;;;1810874;79;21185;-75
2021/01/27 04:37:32;;;;;;;16.02;7.28;;;;;;;;;;1810941;79;21167;-75
2021/01/27 04:39:59;;;;;;;14.55;6.65;;;;;;;;;;1772355;81;21638;-75
2021/01/27 04:42:26;;;;;;;12.50;6.58;;;;;;;;;;1810770;79;21829;-75
2021/01/27 04:44:52;;;;;;;16.00;6.50;;;;;;;;;;1772568;80;21113;-77
2021/01/27 04:47:27;;;;;;;13.32;7.60;;;;;;;;;;1810851;79;21694;-75
2021/01/27 04:49:53;;;;;;;;;;;;;;;;;;1775180;81;21161;-76
2021/01/27 04:52:21;;;;;;;14.30;6.20;;;;;;;;;;1772705;81;20144;-76
2021/01/27 04:54:55;;;;;;;16.07;6.78;;;;;;;;;;1808828;79;21298;-77
2021/01/27 04:57:23;;;;;;;15.15;5.90;;;;;;;;;;1811050;79;21294;-75
2021/01/27 04:59:51;;;;;;;12.63;6.35;;;;;;;;;;1811191;79;21148;-75
2021/01/27 05:02:25;;;;;;;13.05;6.58;;;;;;;;;;1810981;79;21183;-75
2021/01/27 05:05:09;;;;;;;14.98;6.95;;;;;;;;;;1810979;79;21290;-76
2021/01/27 05:07:47;;;;;;;13.93;6.58;;;;;;;;;;1810930;79;21699;-75
2021/01/27 05:10:13;;;;;;;10.93;5.72;;;;;;;;;;1811177;79;21120;-76
2021/01/27 05:12:40;;;;;;;14.98;7.00;;;;;;;;;;1810886;79;21606;-76
2021/01/27 05:15:07;;;;;;;14.45;6.65;;;;;;;;;;1810860;79;21282;-75
2021/01/27 05:17:33;;;;;;;14.18;7.28;;;;;;;;;;1810876;79;21699;-75
2021/01/27 05:19:59;;;;;;;17.85;8.00;;;;;;;;;;1810990;79;21152;-77
2021/01/27 05:22:26;;;;;;;15.65;7.85;;;;;;;;;;1810816;79;21718;-75
2021/01/27 05:24:52;;;;;;;13.93;6.10;;;;;;;;;;1810826;79;21171;-76
2021/01/27 05:27:32;;;;;;;13.65;6.75;;;;;;;;;;1811184;79;21628;-75
2021/01/27 05:30:02;;;;;;;12.43;6.28;;;;;;;;;;1806859;79;21171;-74
2021/01/27 05:32:29;;;;;;;16.87;7.10;;;;;;;;;;1768336;81;21627;-76
2021/01/27 05:34:56;;;;;;;12.55;7.20;;;;;;;;;;1779011;80;21294;-75
2021/01/27 05:37:30;;;;;;;14.83;6.83;;;;;;;;;;1779019;80;21316;-75
2021/01/27 05:40:16;;;;;;;18.07;7.92;;;;;;;;;;1779051;81;21297;-75
2021/01/27 05:42:42;;;;;;;12.15;6.60;;;;;;;;;;1779294;80;21171;-75
2021/01/27 05:45:28;;;;;;;16.30;7.30;;;;;;;;;;1778853;81;21128;-76
2021/01/27 05:47:55;;;;;;;15.18;7.78;;;;;;;;;;1778998;80;21120;-77
2021/01/27 05:50:31;;;;;;;14.35;6.92;;;;;;;;;;1779103;80;21121;-77
2021/01/27 05:53:11;;;;;;;18.12;7.80;;;;;;;;;;1779124;80;21548;-75
2021/01/27 05:55:39;;;;;;;18.30;8.60;;;;;;;;;;1734233;80;21149;-75
2021/01/27 05:58:05;;;;;;;11.08;6.33;;;;;;;;;;1778822;80;21124;-75
2021/01/27 06:00:32;;;;;;;17.48;8.23;;;;;;;;;;1767875;81;21535;-76
2021/01/27 06:02:59;;;;;;;15.35;7.92;;;;;;;;;;1778982;81;21568;-77
2021/01/27 06:05:30;;;;;;;17.42;7.78;;;;;;;;;;1779020;81;21278;-76
2021/01/27 06:07:58;;;;;;;16.60;7.70;;;;;;;;;;1773350;80;21137;-76
2021/01/27 06:10:28;;;;;;;16.73;7.47;;;;;;;;;;1789626;79;21144;-76
2021/01/27 06:12:55;;;;;;;19.55;7.70;;;;;;;;;;1811027;79;21603;-77
2021/01/27 06:15:30;;;;;;;14.10;6.95;;;;;;;;;;1810982;79;21195;-77
2021/01/27 06:17:56;;;;;;;12.98;5.55;;;;;;;;;;1810801;79;21299;-75
2021/01/27 06:20:30;;;;;;;20.27;8.30;;;;;;;;;;1810720;79;21588;-75
2021/01/27 06:23:10;;;;;;;21.95;9.03;;;;;;;;;;1772245;81;21618;-77
2021/01/27 06:25:50;;;;;;;14.33;7.45;;;;;;;;;;1811135;79;21148;-76
2021/01/27 06:28:30;;;;;;;17.25;7.58;;;;;;;;;;1807631;79;21113;-76
2021/01/27 06:30:58;;;;;;;16.20;8.15;;;;;;;;;;1800646;78;21156;-75
2021/01/27 06:33:43;;;;;;;17.52;8.05;;;;;;;;;;1772687;80;21139;-77
2021/01/27 06:36:26;;;;;;;18.27;7.75;;;;;;;;;;1741957;82;21162;-76
2021/01/27 06:39:00;;;;;;;20.68;8.43;;;;;;;;;;1745491;81;21164;-77
2021/01/27 06:41:44;;;;;;;17.73;8.08;;;;;;;;;;1781448;79;21600;-75
2021/01/27 06:44:10;;;;;;;;;;;;;;;;;;1793353;79;21586;-77
2021/01/27 06:46:41;;;;;;;16.95;6.95;;;;;;;;;;1793571;79;20520;-78
2021/01/27 06:49:21;;;;;;;16.55;7.78;;;;;;;;;;1789185;79;21195;-76
2021/01/27 06:51:49;;;;;;;15.88;7.30;;;;;;;;;;1810708;79;21168;-76
2021/01/27 06:54:34;;;;;;;24.87;8.83;;;;;;;;;;1809792;79;21305;-75
2021/01/27 06:57:08;;;;;;;11.20;5.92;;;;;;;;;;1804998;79;21132;-81
2021/01/27 06:59:43;;;;;;;17.35;7.53;;;;;;;;;;1790874;79;21128;-81
2021/01/27 07:02:11;;;;;;;15.13;7.15;;;;;;;;;;1793232;79;21148;-77
2021/01/27 07:04:45;;;;;;;16.60;7.70;;;;;;;;;;1701210;81;21163;-73
2021/01/27 07:07:30;;;;;;;15.65;7.83;;;;;;;;;;1711052;81;21168;-78
2021/01/27 07:09:57;;;;;;;19.82;8.18;;;;;;;;;;1795178;79;21157;-75
2021/01/27 07:12:28;;;;;;;15.15;7.15;;;;;;;;;;1781916;79;21170;-74
2021/01/27 07:15:12;;;;;;;14.25;6.40;;;;;;;;;;1809718;79;21140;-73
2021/01/27 07:17:57;;;;;;;14.90;6.60;;;;;;;;;;1805642;79;21151;-73
2021/01/27 07:20:23;;;;;;;;;;;;;;;;;;1780909;81;21176;-78
2021/01/27 07:22:54;;;;;;;13.50;7.55;;;;;;;;;;1779120;81;20489;-78
2021/01/27 07:25:39;;;;;;;9.73;5.20;;;;;;;;;;1779178;81;21536;-72
2021/01/27 07:28:09;;;;;;;12.63;6.87;;;;;;;;;;1779242;81;21612;-78
2021/01/27 07:30:43;;;;;;;15.95;7.80;;;;;;;;;;1779122;81;21151;-77
2021/01/27 07:33:11;;;;;;;13.83;6.22;;;;;;;;;;1761223;81;21211;-78
2021/01/27 07:35:38;;;;;;;21.85;8.50;;;;;;;;;;1795980;79;21144;-72
2021/01/27 07:38:06;;;;;;;15.88;8.33;;;;;;;;;;1811046;79;21129;-74
2021/01/27 07:40:34;;;;;;;21.27;8.53;;;;;;;;;;1788293;79;21183;-72
2021/01/27 07:43:14;;;;;;;18.32;8.48;;;;;;;;;;1811137;79;21191;-74
2021/01/27 07:45:42;;;;;;;20.50;8.90;;;;;;;;;;1809543;79;21658;-78
2021/01/27 07:48:13;;;;;;;16.82;7.53;;;;;;;;;;1810946;79;21156;-79
2021/01/27 07:50:39;;;;;;;16.87;7.50;;;;;;;;;;1810954;79;21317;-80
2021/01/27 07:53:16;;;;;;;21.62;9.40;;;;;;;;;;1811224;79;21622;-73
2021/01/27 07:55:47;;;;;;;21.75;8.60;;;;;;;;;;1810757;79;21184;-73
2021/01/27 07:58:19;;;;;;;11.93;7.30;;;;;;;;;;1810899;79;21164;-72
2021/01/27 08:00:46;;;;;;;18.07;8.38;;;;;;;;;;1810827;79;21279;-78
2021/01/27 08:03:33;;;;;;;19.52;9.00;;;;;;;;;;1811108;79;21159;-80
2021/01/27 08:06:01;;;;;;;10.72;5.62;;;;;;;;;;1811286;79;21128;-80
2021/01/27 08:08:27;;;;;;;14.35;6.97;;;;;;;;;;1810241;79;21160;-78
2021/01/27 08:10:53;;;;;;;12.13;5.85;;;;;;;;;;1778948;81;21293;-73
2021/01/27 08:13:28;;;;;;;20.30;8.53;;;;;;;;;;1778933;81;21341;-73
2021/01/27 08:16:02;;;;;;;14.43;7.45;;;;;;;;;;1779215;81;21707;-74
2021/01/27 08:18:28;;;;;;;17.27;8.45;;;;;;;;;;1779293;81;21274;-79
2021/01/27 08:21:13;;;;;;;15.95;7.83;;;;;;;;;;1779054;81;21164;-79
2021/01/27 08:23:41;;;;;;;20.02;8.60;;;;;;;;;;1779267;81;21168;-72
2021/01/27 08:26:07;;;;;;;15.68;7.25;;;;;;;;;;1741561;82;21306;-72
2021/01/27 08:28:43;;;;;;;19.77;8.50;;;;;;;;;;1779319;81;21175;-73
2021/01/27 08:31:12;;;;;;;16.20;7.67;;;;;;;;;;1777950;80;21168;-78
2021/01/27 08:33:46;;;;;;;17.57;7.75;;;;;;;;;;1779426;81;21175;-78
2021/01/27 08:36:14;;;;;;;18.90;10.18;;;;;;;;;;1779026;81;21627;-78
2021/01/27 08:38:41;;;;;;;15.85;7.67;;;;;;;;;;1779226;81;21599;-80
2021/01/27 08:41:12;;;;;;;14.55;6.87;;;;;;;;;;1779378;81;21136;-80
2021/01/27 08:43:42;;;;;;;15.43;6.62;;;;;;;;;;1779079;81;21309;-78
2021/01/27 08:46:26;;;;;;;12.85;6.37;;;;;;;;;;1779160;81;21160;-79
2021/01/27 08:48:53;;;;;;;14.00;5.92;;;;;;;;;;1787088;80;21171;-80
2021/01/27 08:51:38;;;;;;;10.08;4.75;;;;;;;;;;1787345;80;21144;-78
2021/01/27 08:54:06;;;;;;;10.93;5.20;;;;;;;;;;1787429;80;21195;-78
2021/01/27 08:56:37;;;;;;;7.40;3.80;;;;;;;;;;1786837;80;21154;-78
2021/01/27 08:59:21;;;;;;;10.08;5.62;;;;;;;;;;1781734;80;21183;-78
2021/01/27 09:01:52;;;;;;;9.63;5.05;;;;;;;;;;1787357;80;21120;-73
2021/01/27 09:04:20;;;;;;;9.78;5.10;;;;;;;;;;1787743;80;21200;-72
2021/01/27 09:06:49;;;;;;;8.50;4.08;;;;;;;;;;1786839;80;21116;-72
2021/01/27 09:09:19;;;;;;;9.95;5.05;;;;;;;;;;1797764;79;21325;-72
2021/01/27 09:11:45;;;;;;;11.40;4.90;;;;;;;;;;1819700;79;21572;-73
2021/01/27 09:14:13;;;;;;;9.53;4.08;;;;;;;;;;1819415;79;21587;-72
2021/01/27 09:16:39;;;;;;;9.53;4.58;;;;;;;;;;1819347;79;21283;-73
2021/01/27 09:19:18;;;;;;;8.60;4.33;;;;;;;;;;1819580;79;21191;-73
2021/01/27 09:21:46;;;;;;;7.22;4.00;;;;;;;;;;1819558;79;21610;-73
2021/01/27 09:24:25;;;;;;;8.08;4.47;;;;;;;;;;1816254;79;21164;-73
2021/01/27 09:26:52;;;;;;;6.87;4.47;;;;;;;;;;1819624;79;21152;-73
2021/01/27 09:29:20;;;;;;;7.67;4.20;;;;;;;;;;1819736;79;21286;-78
2021/01/27 09:31:46;;;;;;;10.18;4.62;;;;;;;;;;1819666;79;21317;-73
2021/01/27 09:34:14;;;;;;;9.00;5.12;;;;;;;;;;1819497;79;21559;-78
2021/01/27 09:36:40;;;;;;;9.20;5.00;;;;;;;;;;1818148;79;21131;-78
2021/01/27 09:39:06;;;;;;;11.63;5.50;;;;;;;;;;1819627;79;21745;-77
2021/01/27 09:41:34;;;;;;;9.85;5.50;;;;;;;;;;1819500;79;21175;-78
2021/01/27 09:44:00;;;;;;;11.75;4.83;;;;;;;;;;1819397;79;21155;-79
2021/01/27 09:46:28;;;;;;;8.88;4.97;;;;;;;;;;1787627;79;21643;-79
2021/01/27 09:48:56;;;;;;;16.15;4.90;;;;;;;;;;1819381;79;21705;-78
2021/01/27 09:51:22;;;;;;;8.53;4.65;;;;;;;;;;1817552;79;21163;-79
2021/01/27 09:53:49;;;;;;;9.25;4.12;;;;;;;;;;1819759;79;21162;-79
2021/01/27 09:56:15;;;;;;;8.03;4.05;;;;;;;;;;1819463;79;21139;-72
2021/01/27 09:58:41;;;;;;;8.58;3.95;;;;;;;;;;1819471;79;21128;-72
2021/01/27 10:01:09;;;;;;;8.20;4.25;;;;;;;;;;1819251;79;21313;-73
2021/01/27 10:03:38;;;;;;;6.50;3.62;;;;;;;;;;1818505;79;21167;-72
2021/01/27 10:06:04;;;;;;;8.25;4.05;;;;;;;;;;1819477;79;21143;-73
2021/01/27 10:08:34;;;;;;;9.78;4.45;;;;;;;;;;1787055;79;21217;-74
2021/01/27 10:11:08;;;;;;;7.80;4.65;;;;;;;;;;1787447;80;21267;-72
2021/01/27 10:13:34;;;;;;;5.85;3.67;;;;;;;;;;1787414;80;21598;-72
2021/01/27 10:16:06;;;;;;;9.75;4.00;;;;;;;;;;1787454;80;21161;-78
2021/01/27 10:18:32;;;;;;;8.05;4.60;;;;;;;;;;1786523;80;21584;-79
2021/01/27 10:21:00;;;;;;;11.15;4.90;;;;;;;;;;1787233;80;21161;-72
2021/01/27 10:23:40;;;;;;;10.63;5.97;;;;;;;;;;1786605;80;21176;-73
2021/01/27 10:26:22;;;;;;;9.75;5.20;;;;;;;;;;1787317;80;21164;-73
2021/01/27 10:28:50;;;;;;;11.68;5.45;;;;;;;;;;1787222;80;21133;-79
2021/01/27 10:31:18;;;;;;;9.05;5.03;;;;;;;;;;1782623;80;21576;-71
2021/01/27 10:33:48;;;;;;;7.35;5.50;;;;;;;;;;1783311;80;21625;-72
2021/01/27 10:36:25;;;;;;;8.85;4.45;;;;;;;;;;1787350;80;21153;-72
2021/01/27 10:39:10;;;;;;;6.47;4.15;;;;;;;;;;1772781;80;21130;-77
2021/01/27 10:41:37;;;;;;;7.60;3.72;;;;;;;;;;1786900;80;21130;-79
2021/01/27 10:44:20;;;;;;;8.93;4.83;;;;;;;;;;1787278;80;21600;-78
2021/01/27 10:46:46;;;;;;;6.92;4.25;;;;;;;;;;1787328;80;21158;-79
2021/01/27 10:49:13;;;;;;;7.17;3.58;;;;;;;;;;1779756;80;21174;-79
2021/01/27 10:51:41;;;;;;;5.47;3.25;;;;;;;;;;1779120;81;21696;-79
2021/01/27 10:54:07;;;;;;;7.28;3.87;;;;;;;;;;1779237;81;21169;-79
2021/01/27 10:56:33;;;;;;;8.05;3.70;;;;;;;;;;1757022;81;21219;-80
2021/01/27 10:58:59;;;;;;;7.92;4.00;;;;;;;;;;1779037;81;21162;-79
2021/01/27 11:01:25;;;;;;;6.72;3.58;;;;;;;;;;1778981;81;21220;-80
2021/01/27 11:03:51;;;;;;;5.87;3.67;;;;;;;;;;1778991;81;21149;-79
2021/01/27 11:06:18;;;;;;;5.67;3.37;;;;;;;;;;1779063;81;21157;-79
2021/01/27 11:08:45;;;;;;;8.43;4.00;;;;;;;;;;1778904;81;21153;-78
2021/01/27 11:11:11;;;;;;;6.72;4.20;;;;;;;;;;1779014;81;21298;-80
2021/01/27 11:13:38;;;;;;;8.85;4.33;;;;;;;;;;1768026;81;21140;-80
2021/01/27 11:16:06;;;;;;;5.97;3.80;;;;;;;;;;1779021;81;21160;-79
2021/01/27 11:18:33;;;;;;;7.08;4.10;;;;;;;;;;1779290;81;21282;-81
2021/01/27 11:21:00;;;;;;;7.10;4.35;;;;;;;;;;1779054;80;21584;-80
2021/01/27 11:23:26;;;;;;;7.85;4.50;;;;;;;;;;1779153;81;21116;-79
2021/01/27 11:25:53;;;;;;;6.22;3.90;;;;;;;;;;1779076;80;21596;-80
2021/01/27 11:28:21;;;;;;;7.00;4.03;;;;;;;;;;1779182;80;21290;-81
2021/01/27 11:30:49;;;;;;;7.55;4.75;;;;;;;;;;1778242;80;21216;-79
2021/01/27 11:33:16;;;;;;;9.40;5.25;;;;;;;;;;1779059;81;21593;-72
2021/01/27 11:35:42;;;;;;;7.70;4.20;;;;;;;;;;1809426;79;21294;-74
2021/01/27 11:38:09;;;;;;;9.30;4.80;;;;;;;;;;1810860;79;21144;-73
2021/01/27 11:40:35;;;;;;;8.30;4.95;;;;;;;;;;1810726;79;21279;-78
2021/01/27 11:43:02;;;;;;;8.03;4.15;;;;;;;;;;1810814;79;21302;-79
2021/01/27 11:45:28;;;;;;;7.90;4.17;;;;;;;;;;1810980;79;21152;-80
2021/01/27 11:47:55;;;;;;;8.10;4.37;;;;;;;;;;1809294;79;21643;-80
2021/01/27 11:50:25;;;;;;;9.13;4.87;;;;;;;;;;1803347;79;21278;-74
2021/01/27 12:06:14;;;;;;;9.80;4.97;;;;;;;;;;1807903;78;22912;-79
2021/01/27 12:08:40;;;;;;;10.15;5.33;;;;;;;;;;1812052;79;21586;-73
2021/01/27 12:11:06;;;;;;;8.10;4.45;;;;;;;;;;1822472;79;21179;-72
2021/01/27 12:13:33;;;;;;;7.45;4.25;;;;;;;;;;1822461;79;21126;-73
2021/01/27 12:15:59;;;;;;;8.28;4.53;;;;;;;;;;1822327;79;21689;-72
2021/01/27 12:18:25;;;;;;;6.80;3.75;;;;;;;;;;1822066;79;21127;-72
2021/01/27 12:20:52;;;;;;;11.78;4.45;;;;;;;;;;1822111;79;21301;-71
2021/01/27 12:23:18;;;;;;;10.53;4.95;;;;;;;;;;1835113;78;21141;-72
2021/01/27 12:25:44;;;;;;;8.38;4.80;;;;;;;;;;1835070;78;21149;-73
2021/01/27 12:28:11;;;;;;;8.45;5.00;;;;;;;;;;1834914;78;21571;-71
2021/01/27 12:30:38;;;;;;;7.78;4.40;;;;;;;;;;1834796;78;21168;-77
2021/01/27 12:33:04;;;;;;;7.12;4.30;;;;;;;;;;1834833;78;21105;-80
2021/01/27 12:35:31;;;;;;;10.98;5.05;;;;;;;;;;1834945;78;21564;-79
2021/01/27 12:37:58;;;;;;;10.32;4.90;;;;;;;;;;1835079;78;21611;-77
2021/01/27 12:40:25;;;;;;;8.88;5.05;;;;;;;;;;1835080;77;21176;-79
2021/01/27 12:42:51;;;;;;;10.82;4.70;;;;;;;;;;1834843;78;21109;-78
2021/01/27 12:45:19;;;;;;;7.83;4.97;;;;;;;;;;1835023;78;21156;-79
2021/01/27 12:47:45;;;;;;;7.87;4.37;;;;;;;;;;1835079;77;21137;-79
2021/01/27 12:50:12;;;;;;;10.72;4.85;;;;;;;;;;1835169;77;21584;-78
2021/01/27 12:52:38;;;;;;;8.58;4.97;;;;;;;;;;1834998;78;21151;-74
2021/01/27 12:55:09;;;;;;;8.80;5.42;;;;;;;;;;1834832;77;21161;-73
2021/01/27 12:57:34;;;;;;;8.63;4.75;;;;;;;;;;1834666;77;21149;-73
2021/01/27 13:00:01;;;;;;;8.60;3.92;;;;;;;;;;1834964;78;21156;-72
2021/01/27 13:02:27;;;;;;;8.88;4.60;;;;;;;;;;1834829;78;21584;-79
2021/01/27 13:04:53;;;;;;;8.28;4.87;;;;;;;;;;1834956;77;21137;-80
2021/01/27 13:07:19;;;;;;;9.73;4.85;;;;;;;;;;1834258;78;21115;-80
2021/01/27 13:09:45;;;;;;;10.55;5.20;;;;;;;;;;1826862;78;21138;-80
2021/01/27 13:12:12;;;;;;;8.20;4.50;;;;;;;;;;1828622;78;21127;-80
2021/01/27 13:14:38;;;;;;;8.80;3.98;;;;;;;;;;1828592;78;21110;-78
2021/01/27 13:17:05;;;;;;;8.75;3.98;;;;;;;;;;1828542;78;21158;-78
2021/01/27 13:19:31;;;;;;;7.00;3.72;;;;;;;;;;1828720;78;21577;-78
2021/01/27 13:21:57;;;;;;;10.08;4.45;;;;;;;;;;1828548;78;21130;-80
2021/01/27 13:24:26;;;;;;;8.78;4.37;;;;;;;;;;1828657;78;21130;-73
2021/01/27 13:26:52;;;;;;;9.30;4.47;;;;;;;;;;1828372;78;21146;-72
2021/01/27 13:29:18;;;;;;;8.43;3.95;;;;;;;;;;1828562;78;21526;-72
2021/01/27 13:31:45;;;;;;;9.70;4.58;;;;;;;;;;1828569;78;21146;-71
2021/01/27 13:34:11;;;;;;;8.58;3.67;;;;;;;;;;1828310;78;21554;-73
2021/01/27 13:36:39;;;;;;;9.58;3.60;;;;;;;;;;1828469;78;21138;-72
2021/01/27 13:39:05;;;;;;;5.28;2.75;;;;;;;;;;1828293;78;21188;-79
2021/01/27 13:41:31;;;;;;;8.25;3.50;;;;;;;;;;1823062;78;21129;-79
2021/01/27 13:43:57;;;;;;;7.33;3.58;;;;;;;;;;1818616;79;21142;-78
2021/01/27 13:46:24;;;;;;;7.72;3.72;;;;;;;;;;1821395;79;21208;-72
2021/01/27 13:48:50;;;;;;;7.37;3.92;;;;;;;;;;1821630;79;21141;-73
2021/01/27 13:51:16;;;;;;;9.68;4.00;;;;;;;;;;1821459;79;21589;-80
2021/01/27 13:53:42;;;;;;;6.87;3.80;;;;;;;;;;1821800;79;21146;-79
2021/01/27 13:56:08;;;;;;;5.40;2.83;;;;;;;;;;1821529;79;21162;-72
2021/01/27 13:58:35;;;;;;;7.22;3.58;;;;;;;;;;1821597;79;21150;-73
2021/01/27 14:01:01;;;;;;;7.60;3.90;;;;;;;;;;1821641;79;21107;-72
2021/01/27 14:03:27;;;;;;;7.08;3.85;;;;;;;;;;1821916;79;21130;-78
2021/01/27 14:05:53;;;;;;;8.68;4.62;;;;;;;;;;1821519;78;21580;-79
2021/01/27 14:08:20;;;;;;;6.75;3.58;;;;;;;;;;1816529;79;21201;-72
2021/01/27 14:10:46;;;;;;;8.23;4.10;;;;;;;;;;1788035;80;21163;-78
2021/01/27 14:13:12;;;;;;;9.43;4.72;;;;;;;;;;1789584;80;21730;-79
2021/01/27 14:15:38;;;;;;;9.53;5.15;;;;;;;;;;1789682;80;21147;-72
2021/01/27 14:18:05;;;;;;;12.50;6.00;;;;;;;;;;1789637;80;21207;-72
2021/01/27 14:20:32;;;;;;;9.83;5.20;;;;;;;;;;1789541;80;21152;-78
2021/01/27 14:22:58;;;;;;;10.38;5.47;;;;;;;;;;1778453;80;21626;-73
2021/01/27 14:25:25;;;;;;;10.78;5.28;;;;;;;;;;1759821;81;21179;-72
2021/01/27 14:27:51;;;;;;;9.58;4.87;;;;;;;;;;1759986;81;21152;-71
2021/01/27 14:30:18;;;;;;;10.53;5.20;;;;;;;;;;1759932;81;21590;-72
2021/01/27 14:32:45;;;;;;;9.80;5.55;;;;;;;;;;1760064;81;21172;-79
2021/01/27 14:35:12;;;;;;;9.13;5.30;;;;;;;;;;1759849;81;21556;-80
2021/01/27 14:37:38;;;;;;;11.25;5.72;;;;;;;;;;1760106;81;21124;-78
2021/01/27 14:40:05;;;;;;;10.20;5.75;;;;;;;;;;1759848;81;21591;-79
2021/01/27 14:42:32;;;;;;;10.35;5.55;;;;;;;;;;1759734;81;21151;-79
2021/01/27 14:44:59;;;;;;;9.03;5.30;;;;;;;;;;1759772;81;21591;-80
2021/01/27 14:47:25;;;;;;;12.55;6.58;;;;;;;;;;1759770;81;21166;-78
2021/01/27 14:49:51;;;;;;;13.55;6.83;;;;;;;;;;1759818;81;21151;-80
2021/01/27 14:52:17;;;;;;;10.38;5.15;;;;;;;;;;1759730;81;21204;-72
2021/01/27 14:54:43;;;;;;;8.63;5.90;;;;;;;;;;1759741;81;21155;-72
2021/01/27 14:57:10;;;;;;;11.88;6.50;;;;;;;;;;1759589;81;21156;-72
2021/01/27 14:59:40;;;;;;;12.23;6.42;;;;;;;;;;1760255;81;21164;-72